createdAt,value
2017-07-24T00:00:19.204Z,18.6
2017-07-24T00:01:21.264Z,18.6
2017-07-24T00:02:23.306Z,18.6
2017-07-24T00:03:25.359Z,18.6
2017-07-24T00:04:27.415Z,18.6
2017-07-24T00:05:29.805Z,18.6
2017-07-24T00:06:32.192Z,18.6
2017-07-24T00:07:34.243Z,18.6
2017-07-24T00:08:36.296Z,18.6
2017-07-24T00:09:38.345Z,18.6
2017-07-24T00:10:40.386Z,18.6
2017-07-24T00:11:43.108Z,18.6
2017-07-24T00:12:45.156Z,18.6
2017-07-24T00:13:47.215Z,18.6
2017-07-24T00:14:49.591Z,18.6
2017-07-24T00:15:51.645Z,18.6
2017-07-24T00:16:53.682Z,18.6
2017-07-24T00:17:55.730Z,18.6
2017-07-24T00:18:57.772Z,18.6
2017-07-24T00:19:59.823Z,18.6
2017-07-24T00:21:01.880Z,18.6
2017-07-24T00:22:03.936Z,18.6
2017-07-24T00:23:06.321Z,18.6
2017-07-24T00:24:08.377Z,18.6
2017-07-24T00:25:10.430Z,18.6
2017-07-24T00:26:12.511Z,18.6
2017-07-24T00:27:14.561Z,18.6
2017-07-24T00:28:16.618Z,18.6
2017-07-24T00:29:18.685Z,18.5
2017-07-24T00:30:20.729Z,18.5
2017-07-24T00:31:22.775Z,18.5
2017-07-24T00:32:24.822Z,18.5
2017-07-24T00:33:26.878Z,18.5
2017-07-24T00:34:28.925Z,18.4
2017-07-24T00:35:31.307Z,18.4
2017-07-24T00:36:33.356Z,18.4
2017-07-24T00:37:35.410Z,18.4
2017-07-24T00:38:37.456Z,18.4
2017-07-24T00:39:39.509Z,18.4
2017-07-24T00:40:41.923Z,18.4
2017-07-24T00:41:44.321Z,18.3
2017-07-24T00:42:46.710Z,18.3
2017-07-24T00:43:49.098Z,18.3
2017-07-24T00:44:51.142Z,18.3
2017-07-24T00:45:53.203Z,18.4
2017-07-24T00:46:55.584Z,18.3
2017-07-24T00:47:57.622Z,18.3
2017-07-24T00:48:59.683Z,18.3
2017-07-24T00:50:01.731Z,18.3
2017-07-24T00:51:04.792Z,18.3
2017-07-24T00:52:06.844Z,18.3
2017-07-24T00:53:09.229Z,18.3
2017-07-24T00:54:11.281Z,18.3
2017-07-24T00:55:14.012Z,18.2
2017-07-24T00:56:16.087Z,18.2
2017-07-24T00:57:18.464Z,18.3
2017-07-24T00:58:21.179Z,18.3
2017-07-24T00:59:23.226Z,18.2
2017-07-24T01:00:25.633Z,18.2
2017-07-24T01:01:28.042Z,18.2
2017-07-24T01:02:30.448Z,18.2
2017-07-24T01:03:32.498Z,18.2
2017-07-24T01:04:34.878Z,18.2
2017-07-24T01:05:36.941Z,18.2
2017-07-24T01:06:39.663Z,18.2
2017-07-24T01:07:41.706Z,18.2
2017-07-24T01:08:43.757Z,18.2
2017-07-24T01:09:45.810Z,18.2
2017-07-24T01:10:48.190Z,18.2
2017-07-24T01:11:50.924Z,18.2
2017-07-24T01:12:52.975Z,18.2
2017-07-24T01:13:55.024Z,18.1
2017-07-24T01:14:57.063Z,18.2
2017-07-24T01:15:59.109Z,18.1
2017-07-24T01:17:01.507Z,18.1
2017-07-24T01:18:03.937Z,18.1
2017-07-24T01:19:05.979Z,18
2017-07-24T01:20:08.031Z,18.1
2017-07-24T01:21:10.081Z,18
2017-07-24T01:22:12.469Z,18
2017-07-24T01:23:14.524Z,18
2017-07-24T01:24:16.911Z,18
2017-07-24T01:25:18.962Z,17.9
2017-07-24T01:26:21.014Z,17.9
2017-07-24T01:27:23.074Z,17.9
2017-07-24T01:28:25.131Z,17.9
2017-07-24T01:29:27.176Z,17.9
2017-07-24T01:30:29.225Z,17.8
2017-07-24T01:31:31.278Z,17.8
2017-07-24T01:32:33.322Z,17.8
2017-07-24T01:33:35.373Z,17.8
2017-07-24T01:34:37.757Z,17.8
2017-07-24T01:35:39.796Z,17.8
2017-07-24T01:36:42.530Z,17.7
2017-07-24T01:37:45.249Z,17.8
2017-07-24T01:38:47.292Z,17.7
2017-07-24T01:39:49.680Z,17.7
2017-07-24T01:40:51.761Z,17.7
2017-07-24T01:41:53.805Z,17.7
2017-07-24T01:42:55.847Z,17.7
2017-07-24T01:43:57.904Z,17.7
2017-07-24T01:44:59.951Z,17.6
2017-07-24T01:46:02.675Z,17.6
2017-07-24T01:47:05.404Z,17.6
2017-07-24T01:48:07.429Z,17.6
2017-07-24T01:49:09.832Z,17.6
2017-07-24T01:50:11.870Z,17.5
2017-07-24T01:51:13.920Z,17.5
2017-07-24T01:52:15.967Z,17.6
2017-07-24T01:53:18.017Z,17.5
2017-07-24T01:54:20.071Z,17.5
2017-07-24T01:55:22.116Z,17.5
2017-07-24T01:56:24.170Z,17.5
2017-07-24T01:57:26.260Z,17.5
2017-07-24T01:58:28.635Z,17.5
2017-07-24T01:59:31.037Z,17.5
2017-07-24T02:00:33.091Z,17.5
2017-07-24T02:01:35.143Z,17.5
2017-07-24T02:02:37.524Z,17.5
2017-07-24T02:03:39.572Z,17.5
2017-07-24T02:04:41.968Z,17.5
2017-07-24T02:05:44.350Z,17.5
2017-07-24T02:06:46.380Z,17.5
2017-07-24T02:07:48.426Z,17.5
2017-07-24T02:08:50.475Z,17.4
2017-07-24T02:09:52.850Z,17.5
2017-07-24T02:10:54.907Z,17.4
2017-07-24T02:11:57.328Z,17.4
2017-07-24T02:12:59.365Z,17.4
2017-07-24T02:14:01.416Z,17.4
2017-07-24T02:15:03.805Z,17.4
2017-07-24T02:16:06.871Z,17.4
2017-07-24T02:17:08.921Z,17.4
2017-07-24T02:18:11.306Z,17.3
2017-07-24T02:19:14.017Z,17.3
2017-07-24T02:20:16.066Z,17.3
2017-07-24T02:21:18.127Z,17.3
2017-07-24T02:22:20.181Z,17.3
2017-07-24T02:23:22.551Z,17.3
2017-07-24T02:24:24.933Z,17.3
2017-07-24T02:25:27.341Z,17.3
2017-07-24T02:26:29.405Z,17.3
2017-07-24T02:27:31.790Z,17.3
2017-07-24T02:28:33.842Z,17.3
2017-07-24T02:29:35.892Z,17.3
2017-07-24T02:30:37.935Z,17.3
2017-07-24T02:31:40.337Z,17.3
2017-07-24T02:32:42.727Z,17.2
2017-07-24T02:33:44.765Z,17.3
2017-07-24T02:34:46.814Z,17.3
2017-07-24T02:35:48.869Z,17.3
2017-07-24T02:36:50.926Z,17.3
2017-07-24T02:37:52.964Z,17.2
2017-07-24T02:38:55.699Z,17.2
2017-07-24T02:39:57.750Z,17.2
2017-07-24T02:41:00.144Z,17.2
2017-07-24T02:42:02.534Z,17.2
2017-07-24T02:43:05.617Z,17.2
2017-07-24T02:44:08.347Z,17.2
2017-07-24T02:45:10.777Z,17.2
2017-07-24T02:46:12.825Z,17.2
2017-07-24T02:47:15.217Z,17.2
2017-07-24T02:48:17.602Z,17.2
2017-07-24T02:49:19.648Z,17.2
2017-07-24T02:50:22.048Z,17.2
2017-07-24T02:51:24.453Z,17.2
2017-07-24T02:52:26.515Z,17.2
2017-07-24T02:53:28.557Z,17.2
2017-07-24T02:54:30.594Z,17.2
2017-07-24T02:55:33.330Z,17.2
2017-07-24T02:56:36.058Z,17.2
2017-07-24T02:57:38.112Z,17.2
2017-07-24T02:58:40.498Z,17.2
2017-07-24T02:59:42.544Z,17.2
2017-07-24T03:00:44.941Z,17.1
2017-07-24T03:01:46.997Z,17.1
2017-07-24T03:02:49.042Z,17.2
2017-07-24T03:03:51.755Z,17.2
2017-07-24T03:04:53.809Z,17.2
2017-07-24T03:05:56.531Z,17.2
2017-07-24T03:06:58.582Z,17.2
2017-07-24T03:08:00.622Z,17.1
2017-07-24T03:09:02.680Z,17.1
2017-07-24T03:10:04.727Z,17.1
2017-07-24T03:11:06.757Z,17.1
2017-07-24T03:12:08.807Z,17.1
2017-07-24T03:13:11.220Z,17.1
2017-07-24T03:14:13.270Z,17.1
2017-07-24T03:15:15.656Z,17.1
2017-07-24T03:16:18.043Z,17.1
2017-07-24T03:17:20.105Z,17.2
2017-07-24T03:18:22.146Z,17.1
2017-07-24T03:19:24.879Z,17.1
2017-07-24T03:20:27.260Z,17.2
2017-07-24T03:21:29.306Z,17.1
2017-07-24T03:22:31.369Z,17.2
2017-07-24T03:23:33.409Z,17.2
2017-07-24T03:24:35.464Z,17.1
2017-07-24T03:25:37.520Z,17.2
2017-07-24T03:26:39.555Z,17.2
2017-07-24T03:27:41.967Z,17.2
2017-07-24T03:28:44.004Z,17.2
2017-07-24T03:29:46.385Z,17.2
2017-07-24T03:30:48.462Z,17.2
2017-07-24T03:31:50.515Z,17.2
2017-07-24T03:32:52.573Z,17.2
2017-07-24T03:33:54.959Z,17.1
2017-07-24T03:34:56.993Z,17.1
2017-07-24T03:35:59.075Z,17.2
2017-07-24T03:37:01.470Z,17.1
2017-07-24T03:38:03.512Z,17.1
2017-07-24T03:39:05.558Z,17.1
2017-07-24T03:40:07.974Z,17.1
2017-07-24T03:41:10.027Z,17.2
2017-07-24T03:42:12.081Z,17.1
2017-07-24T03:43:14.471Z,17.1
2017-07-24T03:44:16.537Z,17.1
2017-07-24T03:45:18.938Z,17.1
2017-07-24T03:46:20.978Z,17.1
2017-07-24T03:47:23.038Z,17.1
2017-07-24T03:48:25.094Z,17.1
2017-07-24T03:49:27.145Z,17.1
2017-07-24T03:50:29.877Z,17.2
2017-07-24T03:51:31.930Z,17.2
2017-07-24T03:52:33.988Z,17.2
2017-07-24T03:53:36.046Z,17.2
2017-07-24T03:54:38.096Z,17.2
2017-07-24T03:55:40.137Z,17.2
2017-07-24T03:56:42.195Z,17.2
2017-07-24T03:57:44.575Z,17.2
2017-07-24T03:58:46.946Z,17.2
2017-07-24T03:59:49.351Z,17.3
2017-07-24T04:00:51.739Z,17.3
2017-07-24T04:01:54.802Z,17.3
2017-07-24T04:02:57.218Z,17.3
2017-07-24T04:03:59.274Z,17.3
2017-07-24T04:05:02.001Z,17.3
2017-07-24T04:06:04.042Z,17.4
2017-07-24T04:07:06.787Z,17.4
2017-07-24T04:08:08.849Z,17.4
2017-07-24T04:09:11.237Z,17.4
2017-07-24T04:10:13.290Z,17.4
2017-07-24T04:11:15.678Z,17.4
2017-07-24T04:12:17.751Z,17.4
2017-07-24T04:13:20.150Z,17.4
2017-07-24T04:14:22.542Z,17.4
2017-07-24T04:15:24.591Z,17.4
2017-07-24T04:16:26.660Z,17.4
2017-07-24T04:17:28.705Z,17.4
2017-07-24T04:18:30.759Z,17.5
2017-07-24T04:19:33.151Z,17.5
2017-07-24T04:20:35.547Z,17.5
2017-07-24T04:21:37.598Z,17.5
2017-07-24T04:22:39.650Z,17.5
2017-07-24T04:23:42.078Z,17.5
2017-07-24T04:24:44.140Z,17.5
2017-07-24T04:25:47.208Z,17.6
2017-07-24T04:26:49.598Z,17.6
2017-07-24T04:27:51.656Z,17.6
2017-07-24T04:28:53.709Z,17.6
2017-07-24T04:29:56.107Z,17.6
2017-07-24T04:30:58.825Z,17.6
2017-07-24T04:32:00.885Z,17.6
2017-07-24T04:33:02.940Z,17.7
2017-07-24T04:34:05.318Z,17.7
2017-07-24T04:35:08.046Z,17.7
2017-07-24T04:36:10.087Z,17.7
2017-07-24T04:37:12.818Z,17.7
2017-07-24T04:38:15.225Z,17.8
2017-07-24T04:39:17.617Z,17.8
2017-07-24T04:40:19.682Z,17.8
2017-07-24T04:41:21.718Z,17.8
2017-07-24T04:42:23.778Z,17.8
2017-07-24T04:43:25.872Z,17.9
2017-07-24T04:44:28.257Z,17.9
2017-07-24T04:45:30.301Z,17.9
2017-07-24T04:46:32.688Z,17.9
2017-07-24T04:47:34.729Z,17.9
2017-07-24T04:48:37.479Z,17.9
2017-07-24T04:49:39.517Z,18
2017-07-24T04:50:41.570Z,18
2017-07-24T04:51:43.964Z,18
2017-07-24T04:52:46.347Z,18
2017-07-24T04:53:48.415Z,18
2017-07-24T04:54:50.465Z,18
2017-07-24T04:55:52.517Z,18
2017-07-24T04:56:54.570Z,18
2017-07-24T04:57:56.627Z,18
2017-07-24T04:58:59.031Z,18.1
2017-07-24T05:00:01.424Z,18
2017-07-24T05:01:03.475Z,18.1
2017-07-24T05:02:05.871Z,18.1
2017-07-24T05:03:08.104Z,18.1
2017-07-24T05:04:10.851Z,18.1
2017-07-24T05:05:13.561Z,18.2
2017-07-24T05:06:15.717Z,18.2
2017-07-24T05:07:18.583Z,18.2
2017-07-24T05:08:20.976Z,18.2
2017-07-24T05:09:23.038Z,18.2
2017-07-24T05:10:25.882Z,18.3
2017-07-24T05:11:30.494Z,18.2
2017-07-24T05:12:34.168Z,18.3
2017-07-24T05:13:37.501Z,18.3
2017-07-24T05:14:41.091Z,18.3
2017-07-24T05:15:43.148Z,18.3
2017-07-24T05:16:45.208Z,18.4
2017-07-24T05:17:47.256Z,18.4
2017-07-24T05:18:49.319Z,18.4
2017-07-24T05:19:51.366Z,18.4
2017-07-24T05:20:53.740Z,18.5
2017-07-24T05:21:55.820Z,18.5
2017-07-24T05:22:57.873Z,18.6
2017-07-24T05:23:59.919Z,18.6
2017-07-24T05:25:02.332Z,18.6
2017-07-24T05:26:05.067Z,18.7
2017-07-24T05:27:07.131Z,18.7
2017-07-24T05:28:09.176Z,18.8
2017-07-24T05:29:11.586Z,18.8
2017-07-24T05:30:13.651Z,18.9
2017-07-24T05:31:15.717Z,18.9
2017-07-24T05:32:17.806Z,19
2017-07-24T05:33:20.196Z,19
2017-07-24T05:34:22.595Z,19.1
2017-07-24T05:35:24.649Z,19.1
2017-07-24T05:36:26.694Z,19.2
2017-07-24T05:37:28.750Z,19.2
2017-07-24T05:38:30.818Z,19.3
2017-07-24T05:39:32.864Z,19.3
2017-07-24T05:40:34.921Z,19.4
2017-07-24T05:41:36.963Z,19.5
2017-07-24T05:42:39.021Z,19.5
2017-07-24T05:43:41.073Z,19.6
2017-07-24T05:44:43.121Z,19.6
2017-07-24T05:45:45.203Z,19.7
2017-07-24T05:46:47.938Z,19.8
2017-07-24T05:47:50.317Z,19.8
2017-07-24T05:48:53.059Z,19.9
2017-07-24T05:49:55.113Z,19.9
2017-07-24T05:50:57.169Z,20
2017-07-24T05:52:03.453Z,20
2017-07-24T05:53:08.958Z,20.1
2017-07-24T05:54:11.014Z,20.1
2017-07-24T05:55:13.077Z,20.2
2017-07-24T05:56:15.139Z,20.2
2017-07-24T05:57:17.204Z,20.3
2017-07-24T05:58:19.256Z,20.3
2017-07-24T05:59:21.315Z,20.3
2017-07-24T06:00:23.724Z,20.4
2017-07-24T06:01:26.153Z,20.5
2017-07-24T06:02:28.226Z,20.5
2017-07-24T06:03:30.383Z,20.6
2017-07-24T06:04:33.097Z,20.6
2017-07-24T06:05:35.157Z,20.7
2017-07-24T06:06:37.223Z,20.7
2017-07-24T06:07:39.278Z,20.7
2017-07-24T06:08:41.339Z,20.8
2017-07-24T06:09:44.085Z,20.9
2017-07-24T06:10:46.141Z,20.9
2017-07-24T06:11:48.528Z,20.9
2017-07-24T06:12:50.594Z,21
2017-07-24T06:13:52.637Z,21.1
2017-07-24T06:14:55.058Z,21.2
2017-07-24T06:15:57.463Z,21.2
2017-07-24T06:16:59.519Z,21.2
2017-07-24T06:18:01.913Z,21.3
2017-07-24T06:19:04.315Z,21.4
2017-07-24T06:20:06.372Z,21.4
2017-07-24T06:21:08.432Z,21.4
2017-07-24T06:22:10.485Z,21.5
2017-07-24T06:23:13.227Z,21.5
2017-07-24T06:24:15.606Z,21.6
2017-07-24T06:25:18.003Z,21.6
2017-07-24T06:26:20.072Z,21.7
2017-07-24T06:27:22.123Z,21.7
2017-07-24T06:28:24.169Z,21.7
2017-07-24T06:29:26.567Z,21.8
2017-07-24T06:30:28.624Z,21.8
2017-07-24T06:31:30.691Z,21.8
2017-07-24T06:32:32.740Z,21.8
2017-07-24T06:33:35.154Z,21.8
2017-07-24T06:34:37.552Z,21.8
2017-07-24T06:35:39.933Z,21.8
2017-07-24T06:36:42.003Z,21.8
2017-07-24T06:37:44.413Z,21.8
2017-07-24T06:38:46.463Z,21.8
2017-07-24T06:39:48.858Z,21.8
2017-07-24T06:40:50.916Z,21.8
2017-07-24T06:41:53.001Z,21.9
2017-07-24T06:42:55.062Z,21.9
2017-07-24T06:43:57.147Z,21.9
2017-07-24T06:44:59.190Z,21.9
2017-07-24T06:46:01.257Z,21.9
2017-07-24T06:47:03.333Z,21.9
2017-07-24T06:48:06.074Z,22
2017-07-24T06:49:08.122Z,22
2017-07-24T06:50:10.185Z,22
2017-07-24T06:51:12.256Z,22
2017-07-24T06:52:14.308Z,22
2017-07-24T06:53:16.354Z,22
2017-07-24T06:54:18.421Z,22
2017-07-24T06:55:20.817Z,22.1
2017-07-24T06:56:23.211Z,22.1
2017-07-24T06:57:25.302Z,22.1
2017-07-24T06:58:27.719Z,22
2017-07-24T06:59:29.782Z,22
2017-07-24T07:00:31.840Z,22
2017-07-24T07:01:33.891Z,22
2017-07-24T07:02:35.953Z,22.1
2017-07-24T07:03:38.024Z,22
2017-07-24T07:04:40.418Z,22.1
2017-07-24T07:05:42.480Z,22.1
2017-07-24T07:06:44.882Z,22.1
2017-07-24T07:07:46.945Z,22.1
2017-07-24T07:08:48.995Z,22.2
2017-07-24T07:09:51.392Z,22.2
2017-07-24T07:10:53.457Z,22.2
2017-07-24T07:11:55.854Z,22.2
2017-07-24T07:12:57.913Z,22.2
2017-07-24T07:14:00.320Z,22.2
2017-07-24T07:15:02.717Z,22.3
2017-07-24T07:16:04.771Z,22.3
2017-07-24T07:17:06.823Z,22.3
2017-07-24T07:18:08.890Z,22.3
2017-07-24T07:19:11.296Z,22.4
2017-07-24T07:20:13.696Z,22.4
2017-07-24T07:21:16.091Z,22.4
2017-07-24T07:22:18.143Z,22.5
2017-07-24T07:23:20.206Z,22.5
2017-07-24T07:24:22.266Z,22.6
2017-07-24T07:25:24.319Z,22.6
2017-07-24T07:26:26.395Z,22.7
2017-07-24T07:27:28.455Z,22.7
2017-07-24T07:28:30.854Z,22.8
2017-07-24T07:29:32.923Z,22.8
2017-07-24T07:30:34.984Z,22.9
2017-07-24T07:31:37.397Z,22.9
2017-07-24T07:32:39.796Z,23
2017-07-24T07:33:42.207Z,23
2017-07-24T07:34:44.274Z,23.1
2017-07-24T07:35:46.325Z,23.1
2017-07-24T07:36:48.375Z,23.1
2017-07-24T07:37:50.438Z,23.2
2017-07-24T07:38:52.506Z,23.2
2017-07-24T07:39:54.572Z,23.3
2017-07-24T07:40:56.995Z,23.3
2017-07-24T07:41:59.064Z,23.4
2017-07-24T07:43:01.135Z,23.4
2017-07-24T07:44:03.521Z,23.4
2017-07-24T07:45:05.929Z,23.5
2017-07-24T07:46:08.663Z,23.5
2017-07-24T07:47:11.103Z,23.5
2017-07-24T07:48:14.206Z,23.5
2017-07-24T07:49:16.597Z,23.6
2017-07-24T07:50:18.659Z,23.6
2017-07-24T07:51:20.714Z,23.6
2017-07-24T07:52:23.109Z,23.6
2017-07-24T07:53:25.184Z,23.7
2017-07-24T07:54:27.240Z,23.7
2017-07-24T07:55:29.300Z,23.8
2017-07-24T07:56:31.364Z,23.8
2017-07-24T07:57:33.423Z,23.9
2017-07-24T07:58:35.479Z,23.9
2017-07-24T07:59:37.544Z,23.9
2017-07-24T08:00:39.694Z,24
2017-07-24T08:01:42.148Z,24
2017-07-24T08:02:44.209Z,24
2017-07-24T08:03:46.601Z,24
2017-07-24T08:04:48.660Z,24
2017-07-24T08:05:50.736Z,24
2017-07-24T08:06:53.144Z,24.1
2017-07-24T08:07:55.886Z,24.1
2017-07-24T08:08:57.935Z,24.1
2017-07-24T08:10:00.001Z,24.2
2017-07-24T08:11:02.415Z,24.2
2017-07-24T08:12:04.476Z,24.3
2017-07-24T08:13:06.877Z,24.3
2017-07-24T08:14:09.272Z,24.3
2017-07-24T08:15:11.342Z,24.4
2017-07-24T08:16:13.746Z,24.4
2017-07-24T08:17:16.157Z,24.4
2017-07-24T08:18:18.569Z,24.5
2017-07-24T08:19:20.628Z,24.6
2017-07-24T08:20:22.700Z,24.6
2017-07-24T08:21:24.769Z,24.6
2017-07-24T08:22:27.174Z,24.7
2017-07-24T08:23:29.239Z,24.7
2017-07-24T08:24:31.303Z,24.8
2017-07-24T08:25:33.726Z,24.8
2017-07-24T08:26:36.133Z,24.8
2017-07-24T08:27:38.189Z,24.9
2017-07-24T08:28:40.260Z,25
2017-07-24T08:29:42.312Z,25
2017-07-24T08:30:44.371Z,25.1
2017-07-24T08:31:46.428Z,25.2
2017-07-24T08:32:48.485Z,25.3
2017-07-24T08:33:50.558Z,25.3
2017-07-24T08:34:52.951Z,25.4
2017-07-24T08:35:55.006Z,25.5
2017-07-24T08:36:57.066Z,25.5
2017-07-24T08:37:59.800Z,25.6
2017-07-24T08:39:01.863Z,25.6
2017-07-24T08:40:03.926Z,25.7
2017-07-24T08:41:05.984Z,25.7
2017-07-24T08:42:08.057Z,25.8
2017-07-24T08:43:10.123Z,25.9
2017-07-24T08:44:12.186Z,25.9
2017-07-24T08:45:14.254Z,26
2017-07-24T08:46:17.011Z,26
2017-07-24T08:47:19.075Z,26.1
2017-07-24T08:48:21.147Z,26.2
2017-07-24T08:49:23.211Z,26.3
2017-07-24T08:50:25.622Z,26.3
2017-07-24T08:51:27.680Z,26.4
2017-07-24T08:52:30.076Z,26.5
2017-07-24T08:53:32.484Z,26.5
2017-07-24T08:54:35.221Z,26.6
2017-07-24T08:55:37.629Z,26.6
2017-07-24T08:56:40.363Z,26.7
2017-07-24T08:57:42.772Z,26.7
2017-07-24T08:58:44.825Z,26.7
2017-07-24T08:59:46.873Z,26.7
2017-07-24T09:00:48.959Z,26.7
2017-07-24T09:01:51.030Z,26.7
2017-07-24T09:02:53.090Z,26.8
2017-07-24T09:03:55.165Z,26.8
2017-07-24T09:04:57.562Z,26.8
2017-07-24T09:05:59.982Z,26.7
2017-07-24T09:07:02.410Z,26.7
2017-07-24T09:08:04.807Z,26.7
2017-07-24T09:09:06.894Z,26.7
2017-07-24T09:10:08.956Z,26.8
2017-07-24T09:11:11.353Z,26.8
2017-07-24T09:12:13.755Z,26.9
2017-07-24T09:13:15.808Z,26.9
2017-07-24T09:14:18.550Z,26.9
2017-07-24T09:15:20.955Z,27
2017-07-24T09:16:23.015Z,27
2017-07-24T09:17:25.086Z,27.1
2017-07-24T09:18:27.138Z,27.1
2017-07-24T09:19:29.554Z,27.2
2017-07-24T09:20:31.617Z,27.3
2017-07-24T09:21:33.686Z,27.3
2017-07-24T09:22:35.745Z,27.4
2017-07-24T09:23:37.834Z,27.5
2017-07-24T09:24:39.903Z,27.6
2017-07-24T09:25:41.983Z,27.7
2017-07-24T09:26:44.056Z,27.7
2017-07-24T09:27:46.460Z,27.8
2017-07-24T09:28:48.526Z,27.8
2017-07-24T09:29:50.589Z,27.9
2017-07-24T09:30:52.687Z,28
2017-07-24T09:31:55.123Z,28
2017-07-24T09:32:57.861Z,28.1
2017-07-24T09:33:59.962Z,28.2
2017-07-24T09:35:02.032Z,28.2
2017-07-24T09:36:04.807Z,28.3
2017-07-24T09:37:06.870Z,28.4
2017-07-24T09:38:09.280Z,28.5
2017-07-24T09:39:12.372Z,28.6
2017-07-24T09:40:14.434Z,28.7
2017-07-24T09:41:16.844Z,28.9
2017-07-24T09:42:18.917Z,29
2017-07-24T09:43:20.983Z,29.1
2017-07-24T09:44:23.385Z,29.3
2017-07-24T09:45:25.451Z,29.4
2017-07-24T09:46:27.512Z,29.6
2017-07-24T09:47:29.589Z,29.8
2017-07-24T09:48:31.991Z,29.9
2017-07-24T09:49:34.426Z,30
2017-07-24T09:50:36.498Z,30.2
2017-07-24T09:51:38.556Z,30.4
2017-07-24T09:52:40.625Z,30.5
2017-07-24T09:53:42.703Z,30.6
2017-07-24T09:54:45.109Z,30.8
2017-07-24T09:55:47.169Z,31
2017-07-24T09:56:49.249Z,31
2017-07-24T09:57:51.320Z,31.2
2017-07-24T09:58:53.762Z,31.3
2017-07-24T09:59:56.168Z,31.4
2017-07-24T10:00:58.259Z,31.4
2017-07-24T10:02:00.337Z,31.5
2017-07-24T10:03:02.400Z,31.5
2017-07-24T10:04:04.823Z,31.5
2017-07-24T10:05:07.286Z,31.5
2017-07-24T10:06:09.351Z,31.6
2017-07-24T10:07:11.430Z,31.6
2017-07-24T10:08:14.187Z,31.7
2017-07-24T10:09:16.270Z,31.9
2017-07-24T10:10:18.344Z,32
2017-07-24T10:11:20.416Z,32.2
2017-07-24T10:12:22.840Z,32.3
2017-07-24T10:13:24.897Z,32.5
2017-07-24T10:14:26.964Z,32.5
2017-07-24T10:15:29.059Z,32.7
2017-07-24T10:16:31.488Z,32.7
2017-07-24T10:17:33.556Z,32.7
2017-07-24T10:18:36.335Z,32.6
2017-07-24T10:19:38.432Z,32.6
2017-07-24T10:20:40.508Z,32.7
2017-07-24T10:21:42.588Z,32.7
2017-07-24T10:22:44.676Z,32.8
2017-07-24T10:23:46.748Z,32.8
2017-07-24T10:24:48.809Z,32.8
2017-07-24T10:25:51.218Z,32.9
2017-07-24T10:26:53.288Z,32.8
2017-07-24T10:27:55.749Z,32.8
2017-07-24T10:28:58.170Z,32.7
2017-07-24T10:30:00.583Z,32.6
2017-07-24T10:31:03.005Z,32.5
2017-07-24T10:32:05.079Z,32.4
2017-07-24T10:33:07.163Z,32.2
2017-07-24T10:34:09.569Z,32.1
2017-07-24T10:35:11.637Z,32
2017-07-24T10:36:14.062Z,31.9
2017-07-24T10:37:16.148Z,31.8
2017-07-24T10:38:18.221Z,31.7
2017-07-24T10:39:20.286Z,31.6
2017-07-24T10:40:22.360Z,31.5
2017-07-24T10:41:24.443Z,31.4
2017-07-24T10:42:26.860Z,31.5
2017-07-24T10:43:28.944Z,31.6
2017-07-24T10:44:31.403Z,31.7
2017-07-24T10:45:34.145Z,31.9
2017-07-24T10:46:36.217Z,32
2017-07-24T10:47:38.284Z,32.1
2017-07-24T10:48:40.356Z,32.2
2017-07-24T10:49:42.432Z,32.4
2017-07-24T10:50:44.507Z,32.5
2017-07-24T10:51:46.921Z,32.7
2017-07-24T10:52:49.334Z,32.8
2017-07-24T10:53:51.406Z,32.9
2017-07-24T10:54:53.821Z,33
2017-07-24T10:55:56.590Z,33.2
2017-07-24T10:56:59.003Z,33.2
2017-07-24T10:58:01.078Z,33.3
2017-07-24T10:59:03.149Z,33.3
2017-07-24T11:00:05.573Z,33.3
2017-07-24T11:01:07.660Z,33.3
2017-07-24T11:02:10.426Z,33.4
2017-07-24T11:03:12.517Z,33.4
2017-07-24T11:04:14.931Z,33.5
2017-07-24T11:05:17.347Z,33.5
2017-07-24T11:06:19.762Z,33.6
2017-07-24T11:07:22.195Z,33.6
2017-07-24T11:08:24.946Z,33.7
2017-07-24T11:09:27.022Z,33.7
2017-07-24T11:10:29.432Z,33.8
2017-07-24T11:11:31.520Z,33.8
2017-07-24T11:12:33.605Z,33.9
2017-07-24T11:13:36.056Z,33.9
2017-07-24T11:14:38.468Z,33.9
2017-07-24T11:15:40.545Z,33.9
2017-07-24T11:16:42.612Z,33.8
2017-07-24T11:17:44.717Z,33.7
2017-07-24T11:18:46.778Z,33.6
2017-07-24T11:19:48.922Z,33.5
2017-07-24T11:20:51.013Z,33.3
2017-07-24T11:21:53.086Z,33.2
2017-07-24T11:22:55.158Z,33.1
2017-07-24T11:23:57.225Z,32.9
2017-07-24T11:24:59.310Z,32.8
2017-07-24T11:26:01.402Z,32.7
2017-07-24T11:27:03.457Z,32.6
2017-07-24T11:28:05.883Z,32.5
2017-07-24T11:29:08.286Z,32.3
2017-07-24T11:30:10.702Z,32.2
2017-07-24T11:31:12.794Z,32.1
2017-07-24T11:32:14.865Z,32
2017-07-24T11:33:16.936Z,31.9
2017-07-24T11:34:19.347Z,31.8
2017-07-24T11:35:21.406Z,31.7
2017-07-24T11:36:23.490Z,31.6
2017-07-24T11:37:25.545Z,31.5
2017-07-24T11:38:27.623Z,31.4
2017-07-24T11:39:29.687Z,31.2
2017-07-24T11:40:31.761Z,31.2
2017-07-24T11:41:33.827Z,31.1
2017-07-24T11:42:35.899Z,31
2017-07-24T11:43:37.976Z,30.9
2017-07-24T11:44:40.056Z,30.8
2017-07-24T11:45:42.116Z,30.7
2017-07-24T11:46:44.195Z,30.7
2017-07-24T11:47:46.636Z,30.6
2017-07-24T11:48:48.708Z,30.5
2017-07-24T11:49:50.802Z,30.5
2017-07-24T11:50:52.865Z,30.4
2017-07-24T11:51:54.922Z,30.3
2017-07-24T11:52:57.029Z,30.3
2017-07-24T11:53:59.090Z,30.3
2017-07-24T11:55:01.154Z,30.3
2017-07-24T11:56:03.562Z,30.3
2017-07-24T11:57:05.685Z,30.3
2017-07-24T11:58:07.753Z,30.2
2017-07-24T11:59:09.819Z,30.2
2017-07-24T12:00:12.593Z,30.2
2017-07-24T12:01:14.655Z,30.2
2017-07-24T12:02:16.705Z,30.2
2017-07-24T12:03:19.117Z,30.2
2017-07-24T12:04:21.186Z,30.2
2017-07-24T12:05:23.266Z,30.2
2017-07-24T12:06:25.341Z,30.2
2017-07-24T12:07:27.754Z,30.3
2017-07-24T12:08:29.826Z,30.4
2017-07-24T12:09:31.886Z,30.5
2017-07-24T12:10:34.633Z,30.6
2017-07-24T12:11:36.713Z,30.7
2017-07-24T12:12:38.774Z,30.8
2017-07-24T12:13:40.837Z,30.9
2017-07-24T12:14:42.904Z,31
2017-07-24T12:15:45.311Z,31
2017-07-24T12:16:47.398Z,31.1
2017-07-24T12:17:49.832Z,31.1
2017-07-24T12:18:52.595Z,31.1
2017-07-24T12:19:54.680Z,31.1
2017-07-24T12:20:56.749Z,31.1
2017-07-24T12:21:58.827Z,31.1
2017-07-24T12:23:00.908Z,31.1
2017-07-24T12:24:03.322Z,31.1
2017-07-24T12:25:05.390Z,31.1
2017-07-24T12:26:07.841Z,31
2017-07-24T12:27:09.923Z,31
2017-07-24T12:28:11.974Z,30.9
2017-07-24T12:29:14.057Z,30.8
2017-07-24T12:30:16.145Z,30.8
2017-07-24T12:31:18.218Z,30.7
2017-07-24T12:32:20.284Z,30.7
2017-07-24T12:33:22.361Z,30.7
2017-07-24T12:34:24.428Z,30.6
2017-07-24T12:35:26.825Z,30.6
2017-07-24T12:36:28.895Z,30.6
2017-07-24T12:37:30.980Z,30.6
2017-07-24T12:38:33.406Z,30.5
2017-07-24T12:39:35.477Z,30.5
2017-07-24T12:40:37.549Z,30.4
2017-07-24T12:41:39.636Z,30.3
2017-07-24T12:42:41.703Z,30.3
2017-07-24T12:43:43.772Z,30.2
2017-07-24T12:44:45.844Z,30.1
2017-07-24T12:45:48.302Z,30
2017-07-24T12:46:50.738Z,29.9
2017-07-24T12:47:52.804Z,29.9
2017-07-24T12:48:55.216Z,29.7
2017-07-24T12:49:57.321Z,29.6
2017-07-24T12:50:59.385Z,29.5
2017-07-24T12:52:01.469Z,29.5
2017-07-24T12:53:03.536Z,29.4
2017-07-24T12:54:05.967Z,29.3
2017-07-24T12:55:33.733Z,29.2
2017-07-24T12:56:35.838Z,29.1
2017-07-24T12:57:38.627Z,29
2017-07-24T12:58:40.750Z,28.8
2017-07-24T12:59:43.202Z,28.7
2017-07-24T13:00:45.333Z,28.6
2017-07-24T13:01:47.461Z,28.6
2017-07-24T13:02:49.581Z,28.4
2017-07-24T13:03:52.029Z,28.3
2017-07-24T13:04:54.131Z,28.3
2017-07-24T13:05:56.604Z,28.2
2017-07-24T13:06:58.724Z,28.1
2017-07-24T13:08:00.832Z,28
2017-07-24T13:09:03.623Z,27.9
2017-07-24T13:10:06.076Z,27.9
2017-07-24T13:11:08.219Z,27.8
2017-07-24T13:12:10.330Z,27.8
2017-07-24T13:13:12.432Z,27.7
2017-07-24T13:14:14.554Z,27.6
2017-07-24T13:15:16.660Z,27.6
2017-07-24T13:16:18.758Z,27.6
2017-07-24T13:17:21.573Z,27.5
2017-07-24T13:18:23.677Z,27.5
2017-07-24T13:19:25.792Z,27.4
2017-07-24T13:20:28.249Z,27.4
2017-07-24T13:21:30.690Z,27.3
2017-07-24T13:22:33.155Z,27.2
2017-07-24T13:23:35.601Z,27.2
2017-07-24T13:24:37.714Z,27.2
2017-07-24T13:25:40.192Z,27.1
2017-07-24T13:26:42.288Z,27.1
2017-07-24T13:27:44.400Z,27
2017-07-24T13:28:46.509Z,27
2017-07-24T13:29:48.624Z,26.9
2017-07-24T13:30:50.740Z,26.9
2017-07-24T13:31:52.844Z,26.9
2017-07-24T13:32:54.959Z,26.9
2017-07-24T13:33:57.415Z,26.9
2017-07-24T13:34:59.846Z,26.8
2017-07-24T13:36:02.305Z,26.8
2017-07-24T13:37:04.410Z,26.8
2017-07-24T13:38:06.873Z,26.8
2017-07-24T13:39:08.978Z,26.8
2017-07-24T13:40:11.075Z,26.7
2017-07-24T13:41:13.863Z,26.7
2017-07-24T13:42:16.018Z,26.8
2017-07-24T13:43:18.467Z,26.8
2017-07-24T13:44:20.637Z,26.8
2017-07-24T13:45:22.765Z,26.8
2017-07-24T13:46:24.864Z,26.8
2017-07-24T13:47:26.990Z,26.8
2017-07-24T13:48:29.102Z,26.8
2017-07-24T13:49:31.214Z,26.8
2017-07-24T13:50:33.881Z,26.8
2017-07-24T13:51:36.695Z,26.8
2017-07-24T13:52:39.149Z,26.8